sensor_id;sensor_type;location;lat;lon;timestamp;P1;durP1;ratioP1;P2;durP2;ratioP2
40959;SDS011;27842;52.272;8.052;2023-08-30T00:02:04;12.13;;;4.45;;
40959;SDS011;27842;52.272;8.052;2023-08-30T00:04:30;12.60;;;4.68;;
40959;SDS011;27842;52.272;8.052;2023-08-30T00:06:56;11.90;;;4.38;;
40959;SDS011;27842;52.272;8.052;2023-08-30T00:09:21;11.00;;;4.50;;
40959;SDS011;27842;52.272;8.052;2023-08-30T00:11:47;9.20;;;4.32;;
40959;SDS011;27842;52.272;8.052;2023-08-30T00:14:12;13.02;;;4.88;;
40959;SDS011;27842;52.272;8.052;2023-08-30T00:16:38;14.82;;;4.72;;
40959;SDS011;27842;52.272;8.052;2023-08-30T00:19:03;11.90;;;4.13;;
40959;SDS011;27842;52.272;8.052;2023-08-30T00:21:29;13.02;;;4.97;;
40959;SDS011;27842;52.272;8.052;2023-08-30T00:23:55;10.45;;;4.40;;
40959;SDS011;27842;52.272;8.052;2023-08-30T00:26:21;12.68;;;4.28;;
40959;SDS011;27842;52.272;8.052;2023-08-30T00:28:46;11.13;;;3.97;;
40959;SDS011;27842;52.272;8.052;2023-08-30T00:31:12;12.55;;;4.90;;
40959;SDS011;27842;52.272;8.052;2023-08-30T00:33:38;10.07;;;4.55;;
40959;SDS011;27842;52.272;8.052;2023-08-30T00:36:03;12.40;;;4.85;;
40959;SDS011;27842;52.272;8.052;2023-08-30T00:38:30;12.23;;;5.18;;
40959;SDS011;27842;52.272;8.052;2023-08-30T00:40:58;15.32;;;5.88;;
40959;SDS011;27842;52.272;8.052;2023-08-30T00:43:24;13.90;;;6.15;;
40959;SDS011;27842;52.272;8.052;2023-08-30T00:45:49;15.80;;;6.45;;
40959;SDS011;27842;52.272;8.052;2023-08-30T00:48:16;12.40;;;5.82;;
40959;SDS011;27842;52.272;8.052;2023-08-30T00:50:44;12.80;;;6.03;;
40959;SDS011;27842;52.272;8.052;2023-08-30T00:53:10;15.98;;;5.93;;
40959;SDS011;27842;52.272;8.052;2023-08-30T00:55:36;14.32;;;6.25;;
40959;SDS011;27842;52.272;8.052;2023-08-30T00:58:03;15.82;;;6.10;;
40959;SDS011;27842;52.272;8.052;2023-08-30T01:00:29;12.10;;;6.00;;
40959;SDS011;27842;52.272;8.052;2023-08-30T01:02:56;14.32;;;6.07;;
40959;SDS011;27842;52.272;8.052;2023-08-30T01:05:22;14.23;;;6.05;;
40959;SDS011;27842;52.272;8.052;2023-08-30T01:07:51;13.15;;;5.95;;
40959;SDS011;27842;52.272;8.052;2023-08-30T01:12:45;13.68;;;5.80;;
40959;SDS011;27842;52.272;8.052;2023-08-30T01:15:18;14.60;;;6.13;;
40959;SDS011;27842;52.272;8.052;2023-08-30T01:17:44;14.10;;;6.28;;
40959;SDS011;27842;52.272;8.052;2023-08-30T01:20:14;13.18;;;5.93;;
40959;SDS011;27842;52.272;8.052;2023-08-30T01:25:45;13.90;;;6.35;;
40959;SDS011;27842;52.272;8.052;2023-08-30T01:28:21;14.98;;;6.72;;
40959;SDS011;27842;52.272;8.052;2023-08-30T01:33:15;12.98;;;6.10;;
40959;SDS011;27842;52.272;8.052;2023-08-30T01:35:43;15.77;;;6.57;;
40959;SDS011;27842;52.272;8.052;2023-08-30T01:38:10;12.63;;;5.88;;
40959;SDS011;27842;52.272;8.052;2023-08-30T01:40:37;13.77;;;6.00;;
40959;SDS011;27842;52.272;8.052;2023-08-30T01:43:05;14.10;;;6.63;;
40959;SDS011;27842;52.272;8.052;2023-08-30T01:45:33;16.83;;;6.47;;
40959;SDS011;27842;52.272;8.052;2023-08-30T01:48:00;13.50;;;6.20;;
40959;SDS011;27842;52.272;8.052;2023-08-30T01:50:28;13.52;;;5.63;;
40959;SDS011;27842;52.272;8.052;2023-08-30T01:52:54;15.27;;;6.38;;
40959;SDS011;27842;52.272;8.052;2023-08-30T01:55:21;14.18;;;6.05;;
40959;SDS011;27842;52.272;8.052;2023-08-30T01:57:48;14.32;;;7.07;;
40959;SDS011;27842;52.272;8.052;2023-08-30T02:00:14;14.73;;;6.45;;
40959;SDS011;27842;52.272;8.052;2023-08-30T02:02:40;13.85;;;6.60;;
40959;SDS011;27842;52.272;8.052;2023-08-30T02:05:06;13.45;;;6.10;;
40959;SDS011;27842;52.272;8.052;2023-08-30T02:10:23;14.25;;;6.95;;
40959;SDS011;27842;52.272;8.052;2023-08-30T02:12:53;13.35;;;6.70;;
40959;SDS011;27842;52.272;8.052;2023-08-30T02:15:20;14.00;;;6.95;;
40959;SDS011;27842;52.272;8.052;2023-08-30T02:17:48;16.00;;;7.40;;
40959;SDS011;27842;52.272;8.052;2023-08-30T02:20:15;14.60;;;7.38;;
40959;SDS011;27842;52.272;8.052;2023-08-30T02:22:41;14.15;;;6.68;;
40959;SDS011;27842;52.272;8.052;2023-08-30T02:25:06;14.38;;;6.72;;
40959;SDS011;27842;52.272;8.052;2023-08-30T02:27:33;14.38;;;7.47;;
40959;SDS011;27842;52.272;8.052;2023-08-30T02:29:59;16.25;;;7.07;;
40959;SDS011;27842;52.272;8.052;2023-08-30T02:32:25;15.65;;;7.95;;
40959;SDS011;27842;52.272;8.052;2023-08-30T02:34:51;15.65;;;7.22;;
40959;SDS011;27842;52.272;8.052;2023-08-30T02:37:17;15.55;;;7.90;;
40959;SDS011;27842;52.272;8.052;2023-08-30T02:39:43;15.13;;;7.43;;
40959;SDS011;27842;52.272;8.052;2023-08-30T02:42:09;16.05;;;8.05;;
40959;SDS011;27842;52.272;8.052;2023-08-30T02:44:35;15.65;;;8.05;;
40959;SDS011;27842;52.272;8.052;2023-08-30T02:47:00;15.80;;;7.93;;
40959;SDS011;27842;52.272;8.052;2023-08-30T02:49:26;15.35;;;8.23;;
40959;SDS011;27842;52.272;8.052;2023-08-30T02:51:52;17.98;;;8.77;;
40959;SDS011;27842;52.272;8.052;2023-08-30T02:54:17;15.05;;;7.93;;
40959;SDS011;27842;52.272;8.052;2023-08-30T02:56:43;17.38;;;8.13;;
40959;SDS011;27842;52.272;8.052;2023-08-30T02:59:09;15.30;;;7.95;;
40959;SDS011;27842;52.272;8.052;2023-08-30T03:01:35;14.77;;;7.72;;
40959;SDS011;27842;52.272;8.052;2023-08-30T03:04:01;15.73;;;8.00;;
40959;SDS011;27842;52.272;8.052;2023-08-30T03:06:28;18.27;;;8.23;;
40959;SDS011;27842;52.272;8.052;2023-08-30T03:08:54;15.95;;;7.53;;
40959;SDS011;27842;52.272;8.052;2023-08-30T03:11:19;14.98;;;7.50;;
40959;SDS011;27842;52.272;8.052;2023-08-30T03:13:45;16.27;;;7.97;;
40959;SDS011;27842;52.272;8.052;2023-08-30T03:16:11;16.25;;;7.55;;
40959;SDS011;27842;52.272;8.052;2023-08-30T03:18:37;15.32;;;8.25;;
40959;SDS011;27842;52.272;8.052;2023-08-30T03:21:03;15.75;;;8.23;;
40959;SDS011;27842;52.272;8.052;2023-08-30T03:23:30;15.65;;;7.90;;
40959;SDS011;27842;52.272;8.052;2023-08-30T03:25:56;16.45;;;8.45;;
40959;SDS011;27842;52.272;8.052;2023-08-30T03:28:22;16.77;;;8.75;;
40959;SDS011;27842;52.272;8.052;2023-08-30T03:30:48;15.90;;;8.60;;
40959;SDS011;27842;52.272;8.052;2023-08-30T03:33:14;15.30;;;8.25;;
40959;SDS011;27842;52.272;8.052;2023-08-30T03:35:39;16.58;;;8.07;;
40959;SDS011;27842;52.272;8.052;2023-08-30T03:38:05;16.27;;;8.20;;
40959;SDS011;27842;52.272;8.052;2023-08-30T03:40:30;17.33;;;8.73;;
40959;SDS011;27842;52.272;8.052;2023-08-30T03:42:56;18.55;;;8.85;;
40959;SDS011;27842;52.272;8.052;2023-08-30T03:45:22;16.08;;;8.60;;
40959;SDS011;27842;52.272;8.052;2023-08-30T03:47:47;15.90;;;8.20;;
40959;SDS011;27842;52.272;8.052;2023-08-30T03:50:13;16.20;;;8.82;;
40959;SDS011;27842;52.272;8.052;2023-08-30T03:52:39;14.73;;;7.85;;
40959;SDS011;27842;52.272;8.052;2023-08-30T03:55:04;16.67;;;8.77;;
40959;SDS011;27842;52.272;8.052;2023-08-30T03:57:30;15.52;;;8.35;;
40959;SDS011;27842;52.272;8.052;2023-08-30T03:59:56;15.50;;;8.77;;
40959;SDS011;27842;52.272;8.052;2023-08-30T04:02:21;17.25;;;9.38;;
40959;SDS011;27842;52.272;8.052;2023-08-30T04:04:48;17.30;;;10.02;;
40959;SDS011;27842;52.272;8.052;2023-08-30T04:07:14;17.58;;;10.10;;
40959;SDS011;27842;52.272;8.052;2023-08-30T04:09:40;16.85;;;9.88;;
40959;SDS011;27842;52.272;8.052;2023-08-30T04:12:06;18.10;;;9.70;;
40959;SDS011;27842;52.272;8.052;2023-08-30T04:14:31;18.05;;;10.23;;
40959;SDS011;27842;52.272;8.052;2023-08-30T04:16:57;20.13;;;10.82;;
40959;SDS011;27842;52.272;8.052;2023-08-30T04:19:23;20.48;;;10.70;;
40959;SDS011;27842;52.272;8.052;2023-08-30T04:21:48;18.73;;;10.63;;
40959;SDS011;27842;52.272;8.052;2023-08-30T04:24:14;20.30;;;10.43;;
40959;SDS011;27842;52.272;8.052;2023-08-30T04:26:40;18.60;;;11.20;;
40959;SDS011;27842;52.272;8.052;2023-08-30T04:29:06;20.30;;;10.68;;
40959;SDS011;27842;52.272;8.052;2023-08-30T04:31:32;17.48;;;10.32;;
40959;SDS011;27842;52.272;8.052;2023-08-30T04:33:57;20.17;;;10.60;;
40959;SDS011;27842;52.272;8.052;2023-08-30T04:36:23;19.40;;;11.13;;
40959;SDS011;27842;52.272;8.052;2023-08-30T04:38:49;18.45;;;10.50;;
40959;SDS011;27842;52.272;8.052;2023-08-30T04:41:14;19.27;;;10.70;;
40959;SDS011;27842;52.272;8.052;2023-08-30T04:43:40;20.77;;;10.40;;
40959;SDS011;27842;52.272;8.052;2023-08-30T04:46:06;20.23;;;11.10;;
40959;SDS011;27842;52.272;8.052;2023-08-30T04:48:31;18.60;;;10.63;;
40959;SDS011;27842;52.272;8.052;2023-08-30T04:51:01;17.85;;;10.07;;
40959;SDS011;27842;52.272;8.052;2023-08-30T04:53:28;19.35;;;10.32;;
40959;SDS011;27842;52.272;8.052;2023-08-30T04:55:54;19.60;;;11.48;;
40959;SDS011;27842;52.272;8.052;2023-08-30T04:58:19;20.73;;;11.57;;
40959;SDS011;27842;52.272;8.052;2023-08-30T05:00:45;19.67;;;11.30;;
40959;SDS011;27842;52.272;8.052;2023-08-30T05:03:11;19.85;;;11.20;;
40959;SDS011;27842;52.272;8.052;2023-08-30T05:05:37;19.30;;;10.95;;
40959;SDS011;27842;52.272;8.052;2023-08-30T05:08:02;21.05;;;11.20;;
40959;SDS011;27842;52.272;8.052;2023-08-30T05:10:28;20.88;;;10.27;;
40959;SDS011;27842;52.272;8.052;2023-08-30T05:12:54;19.85;;;9.98;;
40959;SDS011;27842;52.272;8.052;2023-08-30T05:15:20;20.52;;;9.90;;
40959;SDS011;27842;52.272;8.052;2023-08-30T05:17:46;19.90;;;9.45;;
40959;SDS011;27842;52.272;8.052;2023-08-30T05:20:12;20.40;;;10.32;;
40959;SDS011;27842;52.272;8.052;2023-08-30T05:22:37;17.55;;;10.50;;
40959;SDS011;27842;52.272;8.052;2023-08-30T05:25:03;19.27;;;10.02;;
40959;SDS011;27842;52.272;8.052;2023-08-30T05:27:29;24.40;;;10.48;;
40959;SDS011;27842;52.272;8.052;2023-08-30T05:29:55;18.58;;;10.55;;
40959;SDS011;27842;52.272;8.052;2023-08-30T05:32:21;18.73;;;10.65;;
40959;SDS011;27842;52.272;8.052;2023-08-30T05:34:47;19.08;;;10.80;;
40959;SDS011;27842;52.272;8.052;2023-08-30T05:37:12;22.42;;;10.48;;
40959;SDS011;27842;52.272;8.052;2023-08-30T05:39:38;19.33;;;10.57;;
40959;SDS011;27842;52.272;8.052;2023-08-30T05:42:04;20.27;;;10.80;;
40959;SDS011;27842;52.272;8.052;2023-08-30T05:44:30;19.08;;;10.32;;
40959;SDS011;27842;52.272;8.052;2023-08-30T05:46:55;18.48;;;10.15;;
40959;SDS011;27842;52.272;8.052;2023-08-30T05:49:21;25.02;;;10.90;;
40959;SDS011;27842;52.272;8.052;2023-08-30T05:51:46;19.60;;;10.38;;
40959;SDS011;27842;52.272;8.052;2023-08-30T05:54:12;22.55;;;11.40;;
40959;SDS011;27842;52.272;8.052;2023-08-30T05:56:39;23.25;;;12.45;;
40959;SDS011;27842;52.272;8.052;2023-08-30T05:59:04;27.17;;;12.93;;
40959;SDS011;27842;52.272;8.052;2023-08-30T06:01:30;30.73;;;13.38;;
40959;SDS011;27842;52.272;8.052;2023-08-30T06:03:55;22.23;;;12.57;;
40959;SDS011;27842;52.272;8.052;2023-08-30T06:06:21;26.55;;;11.95;;
40959;SDS011;27842;52.272;8.052;2023-08-30T06:08:47;24.00;;;11.35;;
40959;SDS011;27842;52.272;8.052;2023-08-30T06:11:12;29.90;;;11.75;;
40959;SDS011;27842;52.272;8.052;2023-08-30T06:13:39;20.90;;;10.50;;
40959;SDS011;27842;52.272;8.052;2023-08-30T06:16:04;20.40;;;10.00;;
40959;SDS011;27842;52.272;8.052;2023-08-30T06:18:30;19.83;;;10.13;;
40959;SDS011;27842;52.272;8.052;2023-08-30T06:20:57;20.90;;;10.32;;
40959;SDS011;27842;52.272;8.052;2023-08-30T06:23:23;21.08;;;10.68;;
40959;SDS011;27842;52.272;8.052;2023-08-30T06:25:57;18.63;;;10.70;;
40959;SDS011;27842;52.272;8.052;2023-08-30T06:28:23;19.90;;;11.52;;
40959;SDS011;27842;52.272;8.052;2023-08-30T06:30:49;20.08;;;10.57;;
40959;SDS011;27842;52.272;8.052;2023-08-30T06:33:15;19.48;;;11.38;;
40959;SDS011;27842;52.272;8.052;2023-08-30T06:35:41;22.50;;;11.52;;
40959;SDS011;27842;52.272;8.052;2023-08-30T06:38:07;21.58;;;11.32;;
40959;SDS011;27842;52.272;8.052;2023-08-30T06:40:33;19.85;;;10.98;;
40959;SDS011;27842;52.272;8.052;2023-08-30T06:42:59;19.65;;;11.27;;
40959;SDS011;27842;52.272;8.052;2023-08-30T06:45:24;19.42;;;11.02;;
40959;SDS011;27842;52.272;8.052;2023-08-30T06:47:50;18.85;;;10.70;;
40959;SDS011;27842;52.272;8.052;2023-08-30T06:50:17;20.70;;;11.48;;
40959;SDS011;27842;52.272;8.052;2023-08-30T06:52:43;21.27;;;11.52;;
40959;SDS011;27842;52.272;8.052;2023-08-30T06:55:09;21.20;;;11.05;;
40959;SDS011;27842;52.272;8.052;2023-08-30T06:57:35;18.90;;;11.30;;
40959;SDS011;27842;52.272;8.052;2023-08-30T07:00:00;18.52;;;10.95;;
40959;SDS011;27842;52.272;8.052;2023-08-30T07:02:32;20.55;;;10.73;;
40959;SDS011;27842;52.272;8.052;2023-08-30T07:05:00;19.42;;;10.55;;
40959;SDS011;27842;52.272;8.052;2023-08-30T07:07:26;20.00;;;11.52;;
40959;SDS011;27842;52.272;8.052;2023-08-30T07:09:51;18.40;;;11.18;;
40959;SDS011;27842;52.272;8.052;2023-08-30T07:12:17;21.27;;;11.68;;
40959;SDS011;27842;52.272;8.052;2023-08-30T07:14:42;19.55;;;11.15;;
40959;SDS011;27842;52.272;8.052;2023-08-30T07:17:08;20.55;;;10.90;;
40959;SDS011;27842;52.272;8.052;2023-08-30T07:19:33;19.27;;;10.90;;
40959;SDS011;27842;52.272;8.052;2023-08-30T07:21:59;22.42;;;10.05;;
40959;SDS011;27842;52.272;8.052;2023-08-30T07:24:24;19.05;;;10.68;;
40959;SDS011;27842;52.272;8.052;2023-08-30T07:26:50;19.55;;;9.98;;
40959;SDS011;27842;52.272;8.052;2023-08-30T07:29:16;18.70;;;9.55;;
40959;SDS011;27842;52.272;8.052;2023-08-30T07:31:41;19.30;;;9.27;;
40959;SDS011;27842;52.272;8.052;2023-08-30T07:34:07;19.73;;;9.68;;
40959;SDS011;27842;52.272;8.052;2023-08-30T07:36:33;19.20;;;9.32;;
40959;SDS011;27842;52.272;8.052;2023-08-30T07:38:59;18.70;;;9.43;;
40959;SDS011;27842;52.272;8.052;2023-08-30T07:41:24;17.85;;;9.10;;
40959;SDS011;27842;52.272;8.052;2023-08-30T07:43:50;18.13;;;9.80;;
40959;SDS011;27842;52.272;8.052;2023-08-30T07:46:15;18.88;;;9.73;;
40959;SDS011;27842;52.272;8.052;2023-08-30T07:48:41;20.80;;;10.05;;
40959;SDS011;27842;52.272;8.052;2023-08-30T07:51:07;19.00;;;10.20;;
40959;SDS011;27842;52.272;8.052;2023-08-30T07:53:32;18.58;;;9.38;;
40959;SDS011;27842;52.272;8.052;2023-08-30T07:55:58;17.23;;;9.52;;
40959;SDS011;27842;52.272;8.052;2023-08-30T07:58:23;21.33;;;10.82;;
40959;SDS011;27842;52.272;8.052;2023-08-30T08:00:52;20.30;;;10.15;;
40959;SDS011;27842;52.272;8.052;2023-08-30T08:03:21;20.58;;;10.80;;
40959;SDS011;27842;52.272;8.052;2023-08-30T08:05:50;20.75;;;10.65;;
40959;SDS011;27842;52.272;8.052;2023-08-30T08:08:16;21.73;;;10.55;;
40959;SDS011;27842;52.272;8.052;2023-08-30T08:10:42;21.90;;;11.55;;
40959;SDS011;27842;52.272;8.052;2023-08-30T08:13:08;20.77;;;10.57;;
40959;SDS011;27842;52.272;8.052;2023-08-30T08:15:33;19.88;;;10.55;;
40959;SDS011;27842;52.272;8.052;2023-08-30T08:18:00;22.15;;;10.40;;
40959;SDS011;27842;52.272;8.052;2023-08-30T08:20:26;20.02;;;10.90;;
40959;SDS011;27842;52.272;8.052;2023-08-30T08:22:51;21.38;;;10.82;;
40959;SDS011;27842;52.272;8.052;2023-08-30T08:25:17;21.60;;;10.20;;
40959;SDS011;27842;52.272;8.052;2023-08-30T08:27:43;21.08;;;10.43;;
40959;SDS011;27842;52.272;8.052;2023-08-30T08:30:09;21.50;;;11.00;;
40959;SDS011;27842;52.272;8.052;2023-08-30T08:32:35;21.98;;;10.88;;
40959;SDS011;27842;52.272;8.052;2023-08-30T08:35:01;20.98;;;11.02;;
40959;SDS011;27842;52.272;8.052;2023-08-30T08:37:27;23.80;;;11.45;;
40959;SDS011;27842;52.272;8.052;2023-08-30T08:39:53;21.20;;;11.40;;
40959;SDS011;27842;52.272;8.052;2023-08-30T08:42:19;23.90;;;11.93;;
40959;SDS011;27842;52.272;8.052;2023-08-30T08:44:51;21.02;;;11.07;;
40959;SDS011;27842;52.272;8.052;2023-08-30T08:47:19;21.25;;;10.90;;
40959;SDS011;27842;52.272;8.052;2023-08-30T08:49:49;22.58;;;12.20;;
40959;SDS011;27842;52.272;8.052;2023-08-30T08:52:15;25.02;;;12.02;;
40959;SDS011;27842;52.272;8.052;2023-08-30T08:54:42;25.02;;;12.55;;
40959;SDS011;27842;52.272;8.052;2023-08-30T08:57:09;28.05;;;12.05;;
40959;SDS011;27842;52.272;8.052;2023-08-30T08:59:35;24.08;;;12.20;;
40959;SDS011;27842;52.272;8.052;2023-08-30T09:02:01;22.13;;;11.93;;
40959;SDS011;27842;52.272;8.052;2023-08-30T09:04:28;21.52;;;11.48;;
40959;SDS011;27842;52.272;8.052;2023-08-30T09:06:56;23.92;;;11.73;;
40959;SDS011;27842;52.272;8.052;2023-08-30T09:09:23;24.88;;;11.65;;
40959;SDS011;27842;52.272;8.052;2023-08-30T09:11:48;25.42;;;11.82;;
40959;SDS011;27842;52.272;8.052;2023-08-30T09:14:14;22.33;;;11.32;;
40959;SDS011;27842;52.272;8.052;2023-08-30T09:16:40;22.30;;;13.55;;
40959;SDS011;27842;52.272;8.052;2023-08-30T09:19:05;21.65;;;11.50;;
40959;SDS011;27842;52.272;8.052;2023-08-30T09:21:32;23.50;;;11.95;;
40959;SDS011;27842;52.272;8.052;2023-08-30T09:24:05;26.70;;;11.27;;
40959;SDS011;27842;52.272;8.052;2023-08-30T09:26:32;31.95;;;12.88;;
40959;SDS011;27842;52.272;8.052;2023-08-30T09:29:04;26.48;;;12.90;;
40959;SDS011;27842;52.272;8.052;2023-08-30T09:31:34;24.58;;;12.35;;
40959;SDS011;27842;52.272;8.052;2023-08-30T09:34:01;31.85;;;13.82;;
40959;SDS011;27842;52.272;8.052;2023-08-30T09:36:37;24.40;;;13.98;;
40959;SDS011;27842;52.272;8.052;2023-08-30T09:39:04;26.85;;;14.07;;
40959;SDS011;27842;52.272;8.052;2023-08-30T09:41:31;23.65;;;13.90;;
40959;SDS011;27842;52.272;8.052;2023-08-30T09:44:00;31.65;;;13.77;;
40959;SDS011;27842;52.272;8.052;2023-08-30T09:46:32;31.73;;;15.60;;
40959;SDS011;27842;52.272;8.052;2023-08-30T09:48:57;28.40;;;14.38;;
40959;SDS011;27842;52.272;8.052;2023-08-30T09:51:23;31.85;;;13.77;;
40959;SDS011;27842;52.272;8.052;2023-08-30T09:53:51;35.47;;;15.57;;
40959;SDS011;27842;52.272;8.052;2023-08-30T09:56:23;24.40;;;14.35;;
40959;SDS011;27842;52.272;8.052;2023-08-30T09:58:50;24.23;;;14.40;;
40959;SDS011;27842;52.272;8.052;2023-08-30T10:01:16;25.05;;;14.38;;
40959;SDS011;27842;52.272;8.052;2023-08-30T10:03:42;24.10;;;14.10;;
40959;SDS011;27842;52.272;8.052;2023-08-30T10:06:07;23.58;;;14.15;;
40959;SDS011;27842;52.272;8.052;2023-08-30T10:08:33;27.67;;;14.75;;
40959;SDS011;27842;52.272;8.052;2023-08-30T10:11:01;25.23;;;14.32;;
40959;SDS011;27842;52.272;8.052;2023-08-30T10:13:28;24.98;;;14.07;;
40959;SDS011;27842;52.272;8.052;2023-08-30T10:15:57;25.63;;;14.25;;
40959;SDS011;27842;52.272;8.052;2023-08-30T10:18:28;25.05;;;13.65;;
40959;SDS011;27842;52.272;8.052;2023-08-30T10:20:56;24.00;;;13.68;;
40959;SDS011;27842;52.272;8.052;2023-08-30T10:23:24;20.95;;;14.07;;
40959;SDS011;27842;52.272;8.052;2023-08-30T10:25:53;24.58;;;13.35;;
40959;SDS011;27842;52.272;8.052;2023-08-30T10:28:19;24.38;;;13.00;;
40959;SDS011;27842;52.272;8.052;2023-08-30T10:30:48;23.35;;;12.40;;
40959;SDS011;27842;52.272;8.052;2023-08-30T10:33:14;23.17;;;12.40;;
40959;SDS011;27842;52.272;8.052;2023-08-30T10:35:47;23.10;;;12.95;;
40959;SDS011;27842;52.272;8.052;2023-08-30T10:38:27;21.77;;;12.18;;
40959;SDS011;27842;52.272;8.052;2023-08-30T10:40:54;21.85;;;11.93;;
40959;SDS011;27842;52.272;8.052;2023-08-30T10:43:33;20.17;;;11.15;;
40959;SDS011;27842;52.272;8.052;2023-08-30T10:46:01;25.90;;;14.20;;
40959;SDS011;27842;52.272;8.052;2023-08-30T10:48:38;26.35;;;13.30;;
40959;SDS011;27842;52.272;8.052;2023-08-30T10:51:07;23.75;;;10.63;;
40959;SDS011;27842;52.272;8.052;2023-08-30T10:56:56;22.10;;;9.98;;
40959;SDS011;27842;52.272;8.052;2023-08-30T10:59:25;27.50;;;11.50;;
40959;SDS011;27842;52.272;8.052;2023-08-30T11:01:52;29.13;;;10.20;;
40959;SDS011;27842;52.272;8.052;2023-08-30T11:04:18;20.45;;;9.23;;
40959;SDS011;27842;52.272;8.052;2023-08-30T11:06:45;23.73;;;8.65;;
40959;SDS011;27842;52.272;8.052;2023-08-30T11:09:12;22.65;;;9.80;;
40959;SDS011;27842;52.272;8.052;2023-08-30T11:11:45;21.00;;;9.63;;
40959;SDS011;27842;52.272;8.052;2023-08-30T11:14:12;21.67;;;9.00;;
40959;SDS011;27842;52.272;8.052;2023-08-30T11:16:38;19.17;;;8.57;;
40959;SDS011;27842;52.272;8.052;2023-08-30T11:19:05;29.08;;;10.52;;
40959;SDS011;27842;52.272;8.052;2023-08-30T11:21:32;25.35;;;9.90;;
40959;SDS011;27842;52.272;8.052;2023-08-30T11:24:18;22.48;;;9.02;;
40959;SDS011;27842;52.272;8.052;2023-08-30T11:26:44;25.52;;;9.60;;
40959;SDS011;27842;52.272;8.052;2023-08-30T11:29:11;22.08;;;9.43;;
40959;SDS011;27842;52.272;8.052;2023-08-30T11:31:37;18.25;;;9.43;;
40959;SDS011;27842;52.272;8.052;2023-08-30T11:34:02;20.27;;;10.13;;
40959;SDS011;27842;52.272;8.052;2023-08-30T11:36:29;18.42;;;9.95;;
40959;SDS011;27842;52.272;8.052;2023-08-30T11:38:56;18.90;;;9.38;;
40959;SDS011;27842;52.272;8.052;2023-08-30T11:41:22;19.05;;;9.48;;
40959;SDS011;27842;52.272;8.052;2023-08-30T11:43:49;18.75;;;8.88;;
40959;SDS011;27842;52.272;8.052;2023-08-30T11:46:16;18.40;;;9.40;;
40959;SDS011;27842;52.272;8.052;2023-08-30T11:48:42;19.88;;;8.85;;
40959;SDS011;27842;52.272;8.052;2023-08-30T11:51:09;22.20;;;10.93;;
40959;SDS011;27842;52.272;8.052;2023-08-30T11:53:35;19.52;;;10.00;;
40959;SDS011;27842;52.272;8.052;2023-08-30T11:56:03;18.45;;;9.25;;
40959;SDS011;27842;52.272;8.052;2023-08-30T11:58:33;21.70;;;8.38;;
40959;SDS011;27842;52.272;8.052;2023-08-30T12:00:59;16.55;;;7.90;;
40959;SDS011;27842;52.272;8.052;2023-08-30T12:03:26;20.02;;;10.02;;
40959;SDS011;27842;52.272;8.052;2023-08-30T12:05:53;17.02;;;9.50;;
40959;SDS011;27842;52.272;8.052;2023-08-30T12:08:20;21.52;;;9.80;;
40959;SDS011;27842;52.272;8.052;2023-08-30T12:10:56;17.35;;;8.45;;
40959;SDS011;27842;52.272;8.052;2023-08-30T12:13:23;23.80;;;11.75;;
40959;SDS011;27842;52.272;8.052;2023-08-30T12:15:50;18.60;;;9.07;;
40959;SDS011;27842;52.272;8.052;2023-08-30T12:18:16;21.25;;;10.77;;
40959;SDS011;27842;52.272;8.052;2023-08-30T12:20:59;20.88;;;11.80;;
40959;SDS011;27842;52.272;8.052;2023-08-30T12:23:26;21.88;;;11.75;;
40959;SDS011;27842;52.272;8.052;2023-08-30T12:25:59;20.98;;;12.30;;
40959;SDS011;27842;52.272;8.052;2023-08-30T12:28:26;21.05;;;12.30;;
40959;SDS011;27842;52.272;8.052;2023-08-30T12:30:52;20.20;;;12.45;;
40959;SDS011;27842;52.272;8.052;2023-08-30T12:33:18;19.83;;;12.55;;
40959;SDS011;27842;52.272;8.052;2023-08-30T12:35:44;21.02;;;12.73;;
40959;SDS011;27842;52.272;8.052;2023-08-30T12:38:10;19.38;;;11.43;;
40959;SDS011;27842;52.272;8.052;2023-08-30T12:40:45;17.65;;;10.60;;
40959;SDS011;27842;52.272;8.052;2023-08-30T12:43:12;17.52;;;10.07;;
40959;SDS011;27842;52.272;8.052;2023-08-30T12:45:39;16.45;;;8.93;;
40959;SDS011;27842;52.272;8.052;2023-08-30T12:48:09;18.08;;;9.15;;
40959;SDS011;27842;52.272;8.052;2023-08-30T12:50:36;17.55;;;8.65;;
40959;SDS011;27842;52.272;8.052;2023-08-30T12:53:06;15.90;;;8.48;;
40959;SDS011;27842;52.272;8.052;2023-08-30T12:55:32;15.13;;;7.63;;
40959;SDS011;27842;52.272;8.052;2023-08-30T13:00:27;14.95;;;6.53;;
40959;SDS011;27842;52.272;8.052;2023-08-30T13:02:53;13.45;;;6.07;;
40959;SDS011;27842;52.272;8.052;2023-08-30T13:05:19;12.80;;;6.22;;
40959;SDS011;27842;52.272;8.052;2023-08-30T13:07:46;14.32;;;6.03;;
40959;SDS011;27842;52.272;8.052;2023-08-30T13:10:13;12.55;;;6.22;;
40959;SDS011;27842;52.272;8.052;2023-08-30T13:12:39;14.77;;;6.78;;
40959;SDS011;27842;52.272;8.052;2023-08-30T13:15:05;12.18;;;6.15;;
40959;SDS011;27842;52.272;8.052;2023-08-30T13:17:32;13.68;;;6.13;;
40959;SDS011;27842;52.272;8.052;2023-08-30T13:19:58;10.57;;;5.15;;
40959;SDS011;27842;52.272;8.052;2023-08-30T13:22:24;13.85;;;5.72;;
40959;SDS011;27842;52.272;8.052;2023-08-30T13:24:51;13.52;;;5.35;;
40959;SDS011;27842;52.272;8.052;2023-08-30T13:27:17;12.48;;;5.15;;
40959;SDS011;27842;52.272;8.052;2023-08-30T13:29:43;11.85;;;4.70;;
40959;SDS011;27842;52.272;8.052;2023-08-30T13:32:09;13.38;;;4.95;;
40959;SDS011;27842;52.272;8.052;2023-08-30T13:34:34;10.40;;;4.30;;
40959;SDS011;27842;52.272;8.052;2023-08-30T13:37:00;10.57;;;4.50;;
40959;SDS011;27842;52.272;8.052;2023-08-30T13:39:25;12.82;;;4.85;;
40959;SDS011;27842;52.272;8.052;2023-08-30T13:41:51;10.25;;;4.38;;
40959;SDS011;27842;52.272;8.052;2023-08-30T13:44:17;11.07;;;4.60;;
40959;SDS011;27842;52.272;8.052;2023-08-30T13:46:43;11.02;;;4.32;;
40959;SDS011;27842;52.272;8.052;2023-08-30T13:49:09;10.02;;;4.65;;
40959;SDS011;27842;52.272;8.052;2023-08-30T13:51:35;11.60;;;4.55;;
40959;SDS011;27842;52.272;8.052;2023-08-30T13:54:01;11.77;;;4.70;;
40959;SDS011;27842;52.272;8.052;2023-08-30T13:56:27;8.40;;;4.07;;
40959;SDS011;27842;52.272;8.052;2023-08-30T13:58:55;11.68;;;4.80;;
40959;SDS011;27842;52.272;8.052;2023-08-30T14:01:21;12.87;;;5.43;;
40959;SDS011;27842;52.272;8.052;2023-08-30T14:03:47;11.55;;;4.88;;
40959;SDS011;27842;52.272;8.052;2023-08-30T14:06:12;11.10;;;5.20;;
40959;SDS011;27842;52.272;8.052;2023-08-30T14:08:38;14.57;;;5.60;;
40959;SDS011;27842;52.272;8.052;2023-08-30T14:11:03;10.60;;;4.93;;
40959;SDS011;27842;52.272;8.052;2023-08-30T14:13:29;11.00;;;4.93;;
40959;SDS011;27842;52.272;8.052;2023-08-30T14:16:01;11.23;;;5.03;;
40959;SDS011;27842;52.272;8.052;2023-08-30T14:18:30;12.77;;;5.68;;
40959;SDS011;27842;52.272;8.052;2023-08-30T14:20:56;12.25;;;5.68;;
40959;SDS011;27842;52.272;8.052;2023-08-30T14:23:24;12.25;;;5.43;;
40959;SDS011;27842;52.272;8.052;2023-08-30T14:25:57;9.57;;;4.93;;
40959;SDS011;27842;52.272;8.052;2023-08-30T14:28:24;12.60;;;5.40;;
40959;SDS011;27842;52.272;8.052;2023-08-30T14:30:53;11.85;;;5.70;;
40959;SDS011;27842;52.272;8.052;2023-08-30T14:33:19;11.05;;;5.10;;
40959;SDS011;27842;52.272;8.052;2023-08-30T14:35:45;13.68;;;6.70;;
40959;SDS011;27842;52.272;8.052;2023-08-30T14:38:11;13.95;;;6.30;;
40959;SDS011;27842;52.272;8.052;2023-08-30T14:40:36;13.80;;;6.35;;
40959;SDS011;27842;52.272;8.052;2023-08-30T14:43:03;14.68;;;6.80;;